LiveATC.Net - Listen to live air traffic control over the Internet! Contact for advertising information

ICAO: CYYC  IATA: YYC   Airport: Calgary International Airport
City: Calgary   State/Province: Alberta
Country: Canada   Continent: North America
CYYC METAR Weather: CYYC 280300Z 00000KT 15SM SKC M03/M12 A3028 RMK SLP316
CYYC Flight Activity (FlightAware)
CYYC Twr/App/Center
Feed Status: UP   Listeners: 3
Listen right in your browser - requires Flash (in browser, requires Flash)
Click here to listen with your own player (launches your MP3 player)
CYYC Twr/App/Center Audio Archives
Calgary Arrivals125.900
Calgary Departures119.800
Calgary Tower118.400
Edmonton Center (Banff Sector)133.300


Unauthorized use prohibited. See Terms of Service

Find LiveATC Audio Streams

Airport/ARTCC Code

(e.g., 124.400, 128.75)
Site-wide search

Browse LiveATC Feeds
LiveATC Coverage Map
Top 50 LiveATC Feeds
Bad Weather Areas

Offer a LiveATC Feed
Press Inquiries

LiveATC on iPhone
LiveATC on Android

Windows Phone
Windows 8/10

LiveATC Mobile
(Mobile browser)

ATC Audio Archives
Interesting Recordings

LiveATC Forums

Home Page
Make a Donation
LiveATC Bookstore

Terms of Use
Privacy Policy

ATC/Radar Sites
U.S. ARTCC Freqs
Canadian Air Freqs


FAA Airport Status
Nat'l Airspace Status
Arrival Demand Charts

Server Software By:

Please make a donation to help us keep growing!